Time;durP1;ratioP1;P1;durP2;ratioP2;P2;SDS_P1;SDS_P2;PMS_P1;PMS_P2;Temp;Humidity;BMP_temperature;BMP_pressure;BME280_temperature;BME280_humidity;BME280_pressure;Samples;Min_cycle;Max_cycle;Signal;HPM_P1;HPM_P2
2023/07/03 00:01:26;;;;;;;17.40;4.85;;;;;;;;;;4971741;28;20237;-60
2023/07/03 00:03:51;;;;;;;18.33;5.22;;;;;;;;;;4972266;28;20281;-60
2023/07/03 00:06:17;;;;;;;19.77;4.63;;;;;;;;;;4971566;28;20764;-60
2023/07/03 00:08:42;;;;;;;17.95;4.70;;;;;;;;;;4971936;28;20618;-60
2023/07/03 00:11:07;;;;;;;16.27;4.90;;;;;;;;;;4971910;28;20304;-60
2023/07/03 00:13:33;;;;;;;19.80;4.90;;;;;;;;;;4971548;28;20226;-60
2023/07/03 00:15:59;;;;;;;20.67;5.05;;;;;;;;;;4972090;28;20213;-60
2023/07/03 00:18:25;;;;;;;17.42;4.72;;;;;;;;;;4971092;28;20237;-60
2023/07/03 00:20:55;;;;;;;15.73;5.10;;;;;;;;;;4972159;28;20580;-60
2023/07/03 00:23:21;;;;;;;18.80;4.78;;;;;;;;;;4971590;28;20213;-60
2023/07/03 00:25:47;;;;;;;18.83;4.57;;;;;;;;;;4971637;28;20217;-60
2023/07/03 00:28:12;;;;;;;18.88;4.90;;;;;;;;;;4971246;28;20677;-60
2023/07/03 00:30:37;;;;;;;17.02;4.88;;;;;;;;;;4971814;28;20252;-60
2023/07/03 00:33:02;;;;;;;15.90;4.57;;;;;;;;;;4970961;28;20237;-60
2023/07/03 00:35:28;;;;;;;14.00;4.60;;;;;;;;;;4971513;28;20210;-60
2023/07/03 00:37:53;;;;;;;20.90;5.28;;;;;;;;;;4971824;28;20225;-60
2023/07/03 00:40:18;;;;;;;18.80;4.28;;;;;;;;;;4970695;28;20326;-60
2023/07/03 00:42:44;;;;;;;14.52;4.38;;;;;;;;;;4971581;28;20285;-60
2023/07/03 00:45:09;;;;;;;13.93;4.28;;;;;;;;;;4971133;28;20228;-61
2023/07/03 00:47:35;;;;;;;15.45;4.45;;;;;;;;;;4971349;28;20333;-60
2023/07/03 00:50:00;;;;;;;18.40;4.80;;;;;;;;;;4971256;28;20692;-60
2023/07/03 00:52:25;;;;;;;14.40;3.97;;;;;;;;;;4971161;28;20790;-60
2023/07/03 00:54:52;;;;;;;22.15;5.13;;;;;;;;;;4969471;28;20304;-60
2023/07/03 00:57:17;;;;;;;16.65;4.35;;;;;;;;;;4971040;28;20210;-60
2023/07/03 00:59:43;;;;;;;17.15;4.05;;;;;;;;;;4971503;28;20209;-61
2023/07/03 01:02:11;;;;;;;18.20;4.70;;;;;;;;;;4970524;28;20221;-60
2023/07/03 01:04:39;;;;;;;16.50;4.28;;;;;;;;;;4971057;28;20222;-60
2023/07/03 01:07:06;;;;;;;15.43;4.95;;;;;;;;;;4969685;28;20759;-60
2023/07/03 01:09:33;;;;;;;18.20;4.80;;;;;;;;;;4970643;28;20552;-60
2023/07/03 01:11:59;;;;;;;18.92;4.28;;;;;;;;;;4953647;28;20560;-60
2023/07/03 01:14:24;;;;;;;19.52;4.32;;;;;;;;;;4953255;28;20224;-60
2023/07/03 01:16:49;;;;;;;17.13;4.03;;;;;;;;;;4953074;28;20218;-60
2023/07/03 01:19:18;;;;;;;16.75;4.07;;;;;;;;;;4953419;28;20625;-60
2023/07/03 01:21:47;;;;;;;18.85;4.50;;;;;;;;;;4953435;28;20749;-60
2023/07/03 01:24:14;;;;;;;18.65;4.55;;;;;;;;;;4953172;28;20705;-60
2023/07/03 01:26:40;;;;;;;19.92;4.55;;;;;;;;;;4971214;28;20214;-60
2023/07/03 01:29:05;;;;;;;16.02;4.25;;;;;;;;;;4952653;28;20597;-60
2023/07/03 01:31:30;;;;;;;18.50;4.28;;;;;;;;;;4953532;28;20731;-60
2023/07/03 01:33:56;;;;;;;16.50;4.60;;;;;;;;;;4953640;28;20637;-60
2023/07/03 01:36:21;;;;;;;16.83;3.92;;;;;;;;;;4969656;28;20680;-61
2023/07/03 01:38:46;;;;;;;16.25;4.43;;;;;;;;;;4970767;28;20213;-60
2023/07/03 01:41:12;;;;;;;19.13;4.82;;;;;;;;;;4938293;28;20213;-60
2023/07/03 01:43:38;;;;;;;16.60;4.38;;;;;;;;;;4957267;28;20316;-60
2023/07/03 01:46:03;;;;;;;15.45;4.53;;;;;;;;;;4941861;28;20346;-60
2023/07/03 01:48:30;;;;;;;17.52;4.35;;;;;;;;;;4941799;28;20297;-60
2023/07/03 01:50:55;;;;;;;18.90;4.28;;;;;;;;;;4954078;28;20693;-60
2023/07/03 01:53:23;;;;;;;20.17;5.00;;;;;;;;;;4954377;28;20236;-60
2023/07/03 01:55:51;;;;;;;18.15;4.47;;;;;;;;;;4942155;28;20237;-60
2023/07/03 01:58:23;;;;;;;17.00;4.60;;;;;;;;;;4941571;28;20237;-61
2023/07/03 02:00:49;;;;;;;14.90;4.47;;;;;;;;;;4945090;28;20573;-60
2023/07/03 02:03:22;;;;;;;16.15;4.22;;;;;;;;;;4961915;28;20236;-60
2023/07/03 02:05:48;;;;;;;17.02;4.45;;;;;;;;;;4944899;28;20228;-61
2023/07/03 02:08:13;;;;;;;17.48;4.78;;;;;;;;;;4944391;28;20222;-60
2023/07/03 02:10:39;;;;;;;18.85;4.10;;;;;;;;;;4942442;28;20221;-60
2023/07/03 02:13:04;;;;;;;20.65;5.00;;;;;;;;;;4953671;28;20229;-60
2023/07/03 02:15:29;;;;;;;17.45;5.15;;;;;;;;;;4942105;28;20222;-60
2023/07/03 02:17:55;;;;;;;16.00;4.65;;;;;;;;;;4937639;28;20226;-60
2023/07/03 02:20:21;;;;;;;18.95;4.50;;;;;;;;;;4965041;28;20625;-60
2023/07/03 02:22:46;;;;;;;20.80;4.72;;;;;;;;;;4966423;28;20219;-60
2023/07/03 02:25:12;;;;;;;20.02;4.60;;;;;;;;;;4946262;28;20223;-60
2023/07/03 02:27:37;;;;;;;17.35;4.53;;;;;;;;;;4948659;28;20549;-61
2023/07/03 02:30:03;;;;;;;17.95;4.63;;;;;;;;;;4965704;28;20249;-60
2023/07/03 02:32:32;;;;;;;19.70;5.03;;;;;;;;;;4965810;28;20221;-60
2023/07/03 02:34:58;;;;;;;20.63;4.85;;;;;;;;;;4958621;28;20305;-60
2023/07/03 02:37:23;;;;;;;15.77;4.45;;;;;;;;;;4952117;28;20214;-61
2023/07/03 02:39:49;;;;;;;18.52;5.10;;;;;;;;;;4939679;28;20230;-60
2023/07/03 02:42:14;;;;;;;21.40;4.88;;;;;;;;;;4949892;28;20281;-60
2023/07/03 02:44:39;;;;;;;19.38;5.10;;;;;;;;;;4970758;28;20639;-60
2023/07/03 02:47:05;;;;;;;19.20;5.15;;;;;;;;;;4972781;28;20214;-60
2023/07/03 02:49:30;;;;;;;18.00;5.28;;;;;;;;;;4961563;28;20654;-60
2023/07/03 02:51:55;;;;;;;18.13;4.68;;;;;;;;;;4954261;29;20447;-61
2023/07/03 02:54:20;;;;;;;20.17;4.55;;;;;;;;;;4953323;29;20219;-60
2023/07/03 02:56:46;;;;;;;19.92;5.20;;;;;;;;;;4954157;29;20223;-61
2023/07/03 02:59:14;;;;;;;21.00;4.88;;;;;;;;;;4953891;29;20218;-60
2023/07/03 03:01:39;;;;;;;16.83;5.03;;;;;;;;;;4953492;29;20370;-60
2023/07/03 03:04:05;;;;;;;20.10;5.00;;;;;;;;;;4953517;29;20305;-60
2023/07/03 03:06:30;;;;;;;21.23;5.20;;;;;;;;;;4954207;29;20221;-60
2023/07/03 03:08:56;;;;;;;26.58;5.53;;;;;;;;;;4959710;28;20441;-60
2023/07/03 03:11:21;;;;;;;22.30;5.57;;;;;;;;;;4973189;28;20661;-60
2023/07/03 03:13:46;;;;;;;23.33;5.35;;;;;;;;;;4973350;28;20221;-61
2023/07/03 03:16:12;;;;;;;21.85;5.45;;;;;;;;;;4971830;28;20224;-60
2023/07/03 03:18:37;;;;;;;21.17;4.85;;;;;;;;;;4973159;28;20324;-60
2023/07/03 03:21:02;;;;;;;25.90;5.55;;;;;;;;;;4972802;28;20214;-60
2023/07/03 03:23:27;;;;;;;17.45;4.70;;;;;;;;;;4972479;28;20209;-60
2023/07/03 03:25:53;;;;;;;17.73;4.88;;;;;;;;;;4973252;28;20685;-60
2023/07/03 03:28:18;;;;;;;23.48;5.50;;;;;;;;;;4972057;28;20237;-60
2023/07/03 03:30:43;;;;;;;24.33;5.57;;;;;;;;;;4971199;28;20317;-60
2023/07/03 03:33:09;;;;;;;21.77;5.82;;;;;;;;;;4972297;28;20341;-60
2023/07/03 03:35:34;;;;;;;26.25;5.60;;;;;;;;;;4972560;28;20244;-60
2023/07/03 03:37:59;;;;;;;22.25;6.13;;;;;;;;;;4972723;28;20218;-60
2023/07/03 03:40:25;;;;;;;24.70;6.32;;;;;;;;;;4972756;28;21057;-60
2023/07/03 03:42:50;;;;;;;24.42;5.55;;;;;;;;;;4972447;28;20246;-60
2023/07/03 03:45:15;;;;;;;26.80;5.38;;;;;;;;;;4971877;28;20293;-60
2023/07/03 03:47:40;;;;;;;18.08;5.22;;;;;;;;;;4972576;28;20230;-60
2023/07/03 03:50:06;;;;;;;27.17;5.75;;;;;;;;;;4971495;28;20280;-59
2023/07/03 03:52:31;;;;;;;28.17;5.80;;;;;;;;;;4972292;28;20316;-60
2023/07/03 03:54:58;;;;;;;22.40;5.85;;;;;;;;;;4967431;28;20210;-60
2023/07/03 03:57:23;;;;;;;25.90;5.72;;;;;;;;;;4971968;28;20264;-60
2023/07/03 03:59:49;;;;;;;23.55;5.50;;;;;;;;;;4972469;28;20209;-60
2023/07/03 04:02:15;;;;;;;28.52;6.22;;;;;;;;;;4972028;28;20579;-60
2023/07/03 04:04:40;;;;;;;23.55;5.65;;;;;;;;;;4971902;28;20272;-60
2023/07/03 04:07:06;;;;;;;26.95;5.95;;;;;;;;;;4971922;28;20209;-60
2023/07/03 04:09:31;;;;;;;22.98;6.35;;;;;;;;;;4951742;28;20670;-60
2023/07/03 04:11:56;;;;;;;30.45;6.65;;;;;;;;;;4946302;28;20223;-60
2023/07/03 04:14:21;;;;;;;29.10;6.63;;;;;;;;;;4944457;28;20221;-60
2023/07/03 04:16:47;;;;;;;25.75;5.90;;;;;;;;;;4945681;28;20349;-60
2023/07/03 04:19:14;;;;;;;26.48;5.65;;;;;;;;;;4944058;28;20218;-60
2023/07/03 04:21:40;;;;;;;26.85;6.22;;;;;;;;;;4964232;28;20764;-60
2023/07/03 04:24:05;;;;;;;36.20;7.40;;;;;;;;;;4955929;28;20279;-60
2023/07/03 04:26:31;;;;;;;25.42;6.07;;;;;;;;;;4941684;28;20581;-60
2023/07/03 04:28:57;;;;;;;29.58;6.65;;;;;;;;;;4937355;28;20218;-60
2023/07/03 04:31:22;;;;;;;29.33;6.40;;;;;;;;;;4943782;28;20596;-60
2023/07/03 04:33:47;;;;;;;26.88;6.22;;;;;;;;;;4944436;28;20234;-60
2023/07/03 04:36:13;;;;;;;25.73;5.88;;;;;;;;;;4929122;28;20254;-61
2023/07/03 04:38:39;;;;;;;30.02;6.43;;;;;;;;;;4944592;28;20242;-60
2023/07/03 04:41:04;;;;;;;28.90;6.65;;;;;;;;;;4949602;28;20435;-60
2023/07/03 04:43:29;;;;;;;28.10;6.13;;;;;;;;;;4944524;28;20634;-61
2023/07/03 04:45:56;;;;;;;30.38;6.45;;;;;;;;;;4956380;28;20425;-61
2023/07/03 04:48:21;;;;;;;30.38;6.38;;;;;;;;;;4935754;28;20659;-61
2023/07/03 04:50:48;;;;;;;30.07;6.97;;;;;;;;;;4936067;28;20427;-61
2023/07/03 04:53:13;;;;;;;28.75;6.18;;;;;;;;;;4953061;28;20244;-61
2023/07/03 04:55:39;;;;;;;25.30;6.00;;;;;;;;;;4944021;28;20222;-61
2023/07/03 04:58:05;;;;;;;33.97;7.18;;;;;;;;;;4946012;28;20237;-61
2023/07/03 05:00:30;;;;;;;27.73;6.80;;;;;;;;;;4943940;28;20214;-61
2023/07/03 05:02:57;;;;;;;27.48;6.07;;;;;;;;;;4949046;28;20567;-61
2023/07/03 05:05:22;;;;;;;29.45;6.90;;;;;;;;;;4962210;28;20214;-61
2023/07/03 05:07:48;;;;;;;23.50;5.93;;;;;;;;;;4960793;28;20230;-60
2023/07/03 05:10:14;;;;;;;26.55;6.50;;;;;;;;;;4939022;28;21034;-61
2023/07/03 05:12:39;;;;;;;31.10;7.13;;;;;;;;;;4936684;28;20230;-60
2023/07/03 05:15:07;;;;;;;26.00;6.50;;;;;;;;;;4952048;28;20207;-61
2023/07/03 05:17:34;;;;;;;29.10;6.65;;;;;;;;;;4950949;28;20301;-62
2023/07/03 05:20:00;;;;;;;28.05;6.13;;;;;;;;;;4963036;28;20862;-61
2023/07/03 05:22:25;;;;;;;30.67;6.60;;;;;;;;;;4962434;28;20296;-61
2023/07/03 05:24:51;;;;;;;24.27;6.13;;;;;;;;;;4962939;28;20247;-61
2023/07/03 05:27:16;;;;;;;27.75;6.25;;;;;;;;;;4962856;28;20643;-60
2023/07/03 05:29:41;;;;;;;25.63;6.32;;;;;;;;;;4958100;28;20244;-61
2023/07/03 05:32:07;;;;;;;28.08;6.45;;;;;;;;;;4936329;28;20225;-61
2023/07/03 05:34:33;;;;;;;24.08;6.88;;;;;;;;;;4943932;28;20216;-60
2023/07/03 05:36:59;;;;;;;29.38;6.95;;;;;;;;;;4966602;28;20356;-61
2023/07/03 05:39:24;;;;;;;29.35;7.20;;;;;;;;;;4969702;28;20296;-61
2023/07/03 05:41:50;;;;;;;33.92;7.30;;;;;;;;;;4969784;28;20683;-61
2023/07/03 05:44:15;;;;;;;29.23;7.45;;;;;;;;;;4970056;28;20284;-61
2023/07/03 05:46:40;;;;;;;31.93;7.63;;;;;;;;;;4969865;28;20437;-60
2023/07/03 05:49:06;;;;;;;29.70;6.53;;;;;;;;;;4969709;28;21042;-61
2023/07/03 05:51:31;;;;;;;27.85;6.80;;;;;;;;;;4970541;28;20229;-61
2023/07/03 05:53:56;;;;;;;27.15;6.90;;;;;;;;;;4968998;28;20209;-60
2023/07/03 05:56:22;;;;;;;26.20;6.80;;;;;;;;;;4973248;28;20683;-60
2023/07/03 05:58:47;;;;;;;31.38;7.38;;;;;;;;;;4974341;28;20221;-60
2023/07/03 06:01:12;;;;;;;28.95;6.63;;;;;;;;;;4973644;28;20885;-60
2023/07/03 06:03:42;;;;;;;28.13;6.85;;;;;;;;;;4973831;28;20220;-60
2023/07/03 06:06:08;;;;;;;24.88;6.97;;;;;;;;;;4973288;28;20209;-60
2023/07/03 06:08:33;;;;;;;25.70;6.60;;;;;;;;;;4973943;28;20647;-60
2023/07/03 06:10:59;;;;;;;23.60;5.93;;;;;;;;;;4973499;28;20285;-59
2023/07/03 06:13:24;;;;;;;31.80;6.72;;;;;;;;;;4973214;28;20244;-60
2023/07/03 06:15:49;;;;;;;22.70;5.85;;;;;;;;;;4974359;28;20229;-61
2023/07/03 06:18:15;;;;;;;26.95;6.70;;;;;;;;;;4973592;28;20296;-60
2023/07/03 06:20:40;;;;;;;25.75;6.40;;;;;;;;;;4974098;28;20322;-60
2023/07/03 06:23:05;;;;;;;28.48;5.88;;;;;;;;;;4974005;28;20291;-60
2023/07/03 06:25:31;;;;;;;28.23;6.40;;;;;;;;;;4973727;28;20210;-60
2023/07/03 06:27:56;;;;;;;25.92;5.90;;;;;;;;;;4974175;28;20624;-62
2023/07/03 06:30:22;;;;;;;27.17;6.25;;;;;;;;;;4973888;28;20313;-61
2023/07/03 06:32:47;;;;;;;23.77;6.25;;;;;;;;;;4972936;28;20240;-61
2023/07/03 06:35:13;;;;;;;28.00;5.97;;;;;;;;;;4973584;28;20264;-61
2023/07/03 06:37:38;;;;;;;23.00;5.80;;;;;;;;;;4973789;28;20265;-61
2023/07/03 06:40:09;;;;;;;24.15;6.05;;;;;;;;;;4972736;28;20245;-60
2023/07/03 06:42:34;;;;;;;24.70;5.82;;;;;;;;;;4973733;28;20667;-61
2023/07/03 06:45:00;;;;;;;28.02;6.53;;;;;;;;;;4973889;28;20296;-61
2023/07/03 06:47:25;;;;;;;24.33;6.43;;;;;;;;;;4972586;28;20214;-61
2023/07/03 06:49:50;;;;;;;25.38;6.03;;;;;;;;;;4973744;28;20213;-61
2023/07/03 06:52:16;;;;;;;24.67;5.43;;;;;;;;;;4972683;28;20222;-61
2023/07/03 06:54:41;;;;;;;24.85;5.75;;;;;;;;;;4973492;28;20241;-61
2023/07/03 06:57:06;;;;;;;22.67;5.75;;;;;;;;;;4973311;28;20218;-60
2023/07/03 06:59:32;;;;;;;26.85;6.22;;;;;;;;;;4973372;28;20209;-61
2023/07/03 07:01:57;;;;;;;21.33;5.78;;;;;;;;;;4973429;28;20217;-61
2023/07/03 07:04:22;;;;;;;22.13;5.07;;;;;;;;;;4972549;28;20210;-61
2023/07/03 07:06:48;;;;;;;26.55;6.40;;;;;;;;;;4972955;28;20240;-61
2023/07/03 07:09:14;;;;;;;22.35;5.90;;;;;;;;;;4966949;28;20209;-61
2023/07/03 07:11:40;;;;;;;26.48;6.57;;;;;;;;;;4973704;28;20222;-61
2023/07/03 07:14:05;;;;;;;25.35;5.90;;;;;;;;;;4972504;28;20256;-61
2023/07/03 07:16:31;;;;;;;23.25;6.38;;;;;;;;;;4972184;28;20218;-61
2023/07/03 07:18:59;;;;;;;25.48;7.00;;;;;;;;;;4973139;28;20213;-61
2023/07/03 07:21:24;;;;;;;25.98;6.70;;;;;;;;;;4970865;28;20214;-61
2023/07/03 07:23:50;;;;;;;27.95;6.15;;;;;;;;;;4972874;28;20213;-62
2023/07/03 07:26:16;;;;;;;24.10;5.38;;;;;;;;;;4972641;28;20288;-61
2023/07/03 07:28:41;;;;;;;25.95;5.65;;;;;;;;;;4971306;28;20209;-61
2023/07/03 07:31:06;;;;;;;22.27;4.93;;;;;;;;;;4972520;28;20292;-61
2023/07/03 07:33:32;;;;;;;23.30;6.22;;;;;;;;;;4972869;28;20592;-63
2023/07/03 07:35:57;;;;;;;22.52;5.85;;;;;;;;;;4972335;28;20602;-63
2023/07/03 07:38:22;;;;;;;26.02;5.35;;;;;;;;;;4971252;28;20300;-63
2023/07/03 07:40:48;;;;;;;23.42;5.35;;;;;;;;;;4972613;28;20585;-63
2023/07/03 07:43:14;;;;;;;26.92;6.22;;;;;;;;;;4971467;28;20218;-63
2023/07/03 07:45:39;;;;;;;24.38;5.35;;;;;;;;;;4971060;28;20224;-63
2023/07/03 07:48:05;;;;;;;21.13;5.28;;;;;;;;;;4970658;28;20217;-63
2023/07/03 07:50:33;;;;;;;24.85;5.72;;;;;;;;;;4971087;28;20206;-63
2023/07/03 07:52:59;;;;;;;26.75;5.40;;;;;;;;;;4972875;28;20304;-64
2023/07/03 07:55:25;;;;;;;21.08;5.78;;;;;;;;;;4971666;28;20297;-64
2023/07/03 07:57:51;;;;;;;18.38;5.28;;;;;;;;;;4972471;28;20297;-64
2023/07/03 08:00:17;;;;;;;19.80;5.45;;;;;;;;;;4972197;28;20747;-63
2023/07/03 08:02:42;;;;;;;25.88;5.70;;;;;;;;;;4972163;28;20226;-64
2023/07/03 08:05:08;;;;;;;22.50;5.47;;;;;;;;;;4976884;28;20213;-62
2023/07/03 08:07:34;;;;;;;17.67;4.82;;;;;;;;;;4972334;28;20214;-63
2023/07/03 08:09:59;;;;;;;24.27;5.50;;;;;;;;;;4971686;28;20222;-63
2023/07/03 08:12:25;;;;;;;22.00;5.20;;;;;;;;;;4971598;28;20276;-63
2023/07/03 08:14:50;;;;;;;21.88;5.20;;;;;;;;;;4972073;28;20213;-63
2023/07/03 08:17:15;;;;;;;24.35;5.32;;;;;;;;;;4970406;28;20240;-63
2023/07/03 08:19:40;;;;;;;22.75;5.72;;;;;;;;;;4972280;28;20241;-62
2023/07/03 08:22:06;;;;;;;19.05;4.95;;;;;;;;;;4971791;28;20209;-62
2023/07/03 08:24:31;;;;;;;26.05;5.40;;;;;;;;;;4971205;28;20220;-63
2023/07/03 08:26:56;;;;;;;17.63;4.78;;;;;;;;;;4971959;28;20724;-63
2023/07/03 08:29:22;;;;;;;18.00;4.80;;;;;;;;;;4971387;28;20660;-62
2023/07/03 08:31:47;;;;;;;22.75;5.15;;;;;;;;;;4971659;28;20206;-62
2023/07/03 08:34:13;;;;;;;21.20;4.72;;;;;;;;;;4971471;28;20233;-62
2023/07/03 08:36:38;;;;;;;17.10;4.80;;;;;;;;;;4972231;28;20237;-62
2023/07/03 08:39:04;;;;;;;20.00;4.35;;;;;;;;;;4969612;28;20214;-61
2023/07/03 08:41:29;;;;;;;20.33;4.80;;;;;;;;;;4971914;28;20264;-63
2023/07/03 08:43:55;;;;;;;23.58;4.90;;;;;;;;;;4970702;28;20328;-62
2023/07/03 08:46:21;;;;;;;15.95;4.00;;;;;;;;;;4969139;28;20591;-62
2023/07/03 08:48:47;;;;;;;15.27;4.15;;;;;;;;;;4971738;28;20579;-62
2023/07/03 08:51:14;;;;;;;18.52;3.90;;;;;;;;;;4954137;28;20662;-62
2023/07/03 08:53:40;;;;;;;17.48;4.85;;;;;;;;;;4970594;28;20677;-62
2023/07/03 08:56:09;;;;;;;23.45;4.70;;;;;;;;;;4953875;28;20330;-62
2023/07/03 08:58:34;;;;;;;18.17;4.70;;;;;;;;;;4971605;28;20222;-62
2023/07/03 09:01:04;;;;;;;18.85;4.22;;;;;;;;;;4970603;28;20214;-62
2023/07/03 09:03:42;;;;;;;17.67;3.63;;;;;;;;;;4954142;28;20222;-62
2023/07/03 09:06:10;;;;;;;16.85;3.63;;;;;;;;;;4953159;28;20206;-62
2023/07/03 09:08:42;;;;;;;19.40;3.78;;;;;;;;;;4971007;28;20209;-63
2023/07/03 09:11:08;;;;;;;14.82;3.05;;;;;;;;;;4953573;28;20256;-62
2023/07/03 09:13:39;;;;;;;16.02;3.17;;;;;;;;;;4953659;28;20245;-63
2023/07/03 09:16:07;;;;;;;14.80;2.92;;;;;;;;;;4952321;28;20214;-62
2023/07/03 09:18:34;;;;;;;11.45;3.00;;;;;;;;;;4964258;28;20231;-63
2023/07/03 09:21:00;;;;;;;13.55;2.72;;;;;;;;;;4968168;28;20260;-62
2023/07/03 09:23:26;;;;;;;15.30;3.10;;;;;;;;;;4977909;28;20638;-62
2023/07/03 09:25:54;;;;;;;15.95;3.03;;;;;;;;;;4963637;28;20292;-62
2023/07/03 09:28:19;;;;;;;14.38;3.17;;;;;;;;;;4978649;28;20211;-62
2023/07/03 09:30:44;;;;;;;12.60;3.33;;;;;;;;;;4978935;28;20228;-62
2023/07/03 09:33:10;;;;;;;17.88;3.90;;;;;;;;;;4984574;28;20226;-62
2023/07/03 09:35:37;;;;;;;17.25;4.30;;;;;;;;;;4974956;28;20225;-62
2023/07/03 09:38:05;;;;;;;19.23;3.88;;;;;;;;;;4970222;28;20685;-62
2023/07/03 09:40:32;;;;;;;19.27;4.20;;;;;;;;;;4970799;28;20221;-62
2023/07/03 09:42:58;;;;;;;19.20;3.60;;;;;;;;;;4970309;28;20763;-63
2023/07/03 09:45:28;;;;;;;15.73;3.42;;;;;;;;;;4953018;28;20687;-61
2023/07/03 09:47:57;;;;;;;16.73;3.50;;;;;;;;;;4953136;28;20560;-62
2023/07/03 09:50:24;;;;;;;17.73;3.60;;;;;;;;;;4970066;28;20206;-62
2023/07/03 09:52:49;;;;;;;14.07;3.05;;;;;;;;;;4970611;28;20234;-62
2023/07/03 09:55:14;;;;;;;13.95;3.40;;;;;;;;;;4952255;28;20404;-62
2023/07/03 09:57:39;;;;;;;15.75;3.53;;;;;;;;;;4953341;28;20708;-62
2023/07/03 10:00:12;;;;;;;14.18;3.30;;;;;;;;;;4970293;28;20304;-61
2023/07/03 10:02:37;;;;;;;14.50;3.40;;;;;;;;;;4970039;28;20220;-62
2023/07/03 10:05:03;;;;;;;17.63;3.78;;;;;;;;;;4970255;28;20206;-61
2023/07/03 10:07:28;;;;;;;12.10;3.65;;;;;;;;;;4970730;28;20233;-62
2023/07/03 10:09:54;;;;;;;17.45;3.45;;;;;;;;;;4962930;28;20311;-62
2023/07/03 10:12:22;;;;;;;12.10;3.15;;;;;;;;;;4970041;28;21889;-62
2023/07/03 10:14:52;;;;;;;18.38;3.75;;;;;;;;;;4969293;28;20214;-62
2023/07/03 10:17:18;;;;;;;15.82;3.90;;;;;;;;;;4952130;28;20218;-62
2023/07/03 10:19:43;;;;;;;16.05;3.85;;;;;;;;;;4970600;28;20228;-62
2023/07/03 10:22:09;;;;;;;16.00;3.60;;;;;;;;;;4952842;28;20659;-62
2023/07/03 10:24:35;;;;;;;17.35;3.42;;;;;;;;;;4969383;28;20218;-62
2023/07/03 10:27:01;;;;;;;13.65;3.13;;;;;;;;;;4970023;28;20317;-61
2023/07/03 10:29:28;;;;;;;15.80;3.30;;;;;;;;;;4952944;28;20252;-62
2023/07/03 10:31:55;;;;;;;18.38;3.30;;;;;;;;;;4952444;28;20225;-62
2023/07/03 10:34:27;;;;;;;13.10;3.38;;;;;;;;;;4952534;28;20621;-62
2023/07/03 10:36:55;;;;;;;13.93;3.08;;;;;;;;;;4953247;28;20459;-62
2023/07/03 10:39:22;;;;;;;13.93;3.08;;;;;;;;;;4969109;28;20221;-60
2023/07/03 10:41:49;;;;;;;14.45;3.33;;;;;;;;;;4972682;28;20229;-62
2023/07/03 10:44:17;;;;;;;13.15;2.63;;;;;;;;;;4971626;28;20210;-62
2023/07/03 10:46:46;;;;;;;13.95;2.70;;;;;;;;;;4973731;28;20209;-62
2023/07/03 10:49:14;;;;;;;12.00;2.58;;;;;;;;;;4955968;28;20214;-61
2023/07/03 10:51:47;;;;;;;11.85;2.90;;;;;;;;;;4956147;28;20221;-61
2023/07/03 10:54:15;;;;;;;16.80;3.20;;;;;;;;;;4955487;28;20547;-62
2023/07/03 10:56:44;;;;;;;13.68;2.80;;;;;;;;;;4956202;28;20222;-62
2023/07/03 10:59:13;;;;;;;15.25;3.08;;;;;;;;;;4955274;28;20225;-62
2023/07/03 11:01:39;;;;;;;9.05;2.25;;;;;;;;;;4973784;28;20360;-63
2023/07/03 11:04:19;;;;;;;15.50;2.38;;;;;;;;;;4973120;28;20595;-62
2023/07/03 11:06:48;;;;;;;12.88;2.65;;;;;;;;;;4972967;28;20313;-63
2023/07/03 11:09:14;;;;;;;12.75;2.70;;;;;;;;;;4959675;28;20300;-64
2023/07/03 11:11:40;;;;;;;11.40;2.75;;;;;;;;;;4973593;28;20321;-63
2023/07/03 11:14:09;;;;;;;11.20;2.75;;;;;;;;;;4972499;28;20252;-62
2023/07/03 11:16:39;;;;;;;15.40;2.30;;;;;;;;;;4958556;28;20621;-62
2023/07/03 11:19:08;;;;;;;13.43;2.70;;;;;;;;;;4955571;28;20218;-63
2023/07/03 11:21:36;;;;;;;13.02;2.53;;;;;;;;;;4955375;28;20304;-62
2023/07/03 11:24:11;;;;;;;16.80;3.13;;;;;;;;;;4955271;28;20220;-62
2023/07/03 11:26:37;;;;;;;14.07;3.03;;;;;;;;;;4972699;28;20219;-62
2023/07/03 11:29:02;;;;;;;12.70;2.83;;;;;;;;;;4972729;28;20317;-62
2023/07/03 11:31:28;;;;;;;10.70;2.55;;;;;;;;;;4973101;28;20674;-63
2023/07/03 11:33:53;;;;;;;12.02;2.40;;;;;;;;;;4972286;28;20316;-63
2023/07/03 11:36:38;;;;;;;11.23;2.35;;;;;;;;;;4972352;28;20236;-62
2023/07/03 11:39:09;;;;;;;9.90;2.80;;;;;;;;;;4972367;28;20222;-62
2023/07/03 11:41:42;;;;;;;12.60;3.30;;;;;;;;;;4972372;28;20214;-62
2023/07/03 11:44:26;;;;;;;12.38;3.05;;;;;;;;;;4972544;28;20276;-62
2023/07/03 11:46:51;;;;;;;10.57;2.55;;;;;;;;;;4973099;28;20241;-62
2023/07/03 11:49:16;;;;;;;12.05;2.70;;;;;;;;;;4971644;28;20221;-63
2023/07/03 11:51:42;;;;;;;13.48;2.70;;;;;;;;;;4971913;28;20213;-63
2023/07/03 11:54:20;;;;;;;14.35;2.35;;;;;;;;;;4954571;28;20238;-62
2023/07/03 11:56:46;;;;;;;12.30;2.50;;;;;;;;;;4971933;28;20214;-63
2023/07/03 11:59:23;;;;;;;9.90;2.15;;;;;;;;;;4972231;28;20232;-63
2023/07/03 12:01:48;;;;;;;15.18;2.75;;;;;;;;;;4972077;28;20655;-63
2023/07/03 12:04:14;;;;;;;12.50;2.25;;;;;;;;;;4971771;28;20309;-63
2023/07/03 12:06:39;;;;;;;10.75;2.85;;;;;;;;;;4954989;28;20249;-62
2023/07/03 12:09:19;;;;;;;11.95;2.53;;;;;;;;;;4971124;28;20224;-62
2023/07/03 12:11:59;;;;;;;10.48;2.55;;;;;;;;;;4972288;28;20320;-62
2023/07/03 12:14:40;;;;;;;16.23;2.80;;;;;;;;;;4971812;28;20555;-63
2023/07/03 12:17:19;;;;;;;15.98;3.72;;;;;;;;;;4951828;29;20257;-62
2023/07/03 12:19:46;;;;;;;12.27;2.70;;;;;;;;;;4952914;29;20241;-63
2023/07/03 12:22:12;;;;;;;14.45;2.95;;;;;;;;;;4935399;29;20588;-63
2023/07/03 12:24:37;;;;;;;10.73;2.45;;;;;;;;;;4935130;29;20274;-63
2023/07/03 12:27:03;;;;;;;14.45;2.75;;;;;;;;;;4952362;29;20214;-63
2023/07/03 12:29:30;;;;;;;11.23;2.50;;;;;;;;;;4952679;28;20281;-63
2023/07/03 12:31:57;;;;;;;12.60;2.80;;;;;;;;;;4952400;29;20223;-63
2023/07/03 12:34:24;;;;;;;13.05;2.85;;;;;;;;;;4951832;29;20269;-63
2023/07/03 12:36:49;;;;;;;15.55;3.13;;;;;;;;;;4953210;28;20685;-62
2023/07/03 12:39:15;;;;;;;15.20;2.88;;;;;;;;;;4970001;28;20257;-62
2023/07/03 12:41:40;;;;;;;16.92;2.88;;;;;;;;;;4972128;28;20269;-62
2023/07/03 12:44:06;;;;;;;16.38;3.28;;;;;;;;;;4970807;28;20214;-62
2023/07/03 12:46:32;;;;;;;17.05;2.90;;;;;;;;;;4970364;28;20301;-62
2023/07/03 12:49:03;;;;;;;10.90;2.22;;;;;;;;;;4971787;28;20237;-62
2023/07/03 12:51:28;;;;;;;10.68;2.42;;;;;;;;;;4970617;28;20213;-63
2023/07/03 12:53:53;;;;;;;15.00;2.60;;;;;;;;;;4971799;28;20605;-62
2023/07/03 12:56:19;;;;;;;11.45;2.92;;;;;;;;;;4953853;28;20536;-62
2023/07/03 12:58:44;;;;;;;10.32;2.45;;;;;;;;;;4953509;28;20208;-62
2023/07/03 13:01:09;;;;;;;11.10;2.55;;;;;;;;;;4971217;28;20221;-62
2023/07/03 13:03:38;;;;;;;12.55;2.70;;;;;;;;;;4971172;28;20213;-62
2023/07/03 13:06:13;;;;;;;9.90;1.95;;;;;;;;;;4952890;28;20210;-62
2023/07/03 13:08:39;;;;;;;9.40;2.10;;;;;;;;;;4971521;28;20216;-62
2023/07/03 13:11:05;;;;;;;9.77;2.63;;;;;;;;;;4971212;28;20217;-63
2023/07/03 13:13:30;;;;;;;12.60;2.03;;;;;;;;;;4970605;28;20229;-63
2023/07/03 13:15:55;;;;;;;5.93;1.60;;;;;;;;;;4971304;28;20800;-62
2023/07/03 13:18:22;;;;;;;8.25;1.90;;;;;;;;;;4967617;28;20581;-62
2023/07/03 13:20:54;;;;;;;7.75;1.58;;;;;;;;;;4970070;28;20557;-63
2023/07/03 13:23:25;;;;;;;11.07;1.92;;;;;;;;;;4969395;28;20242;-63
2023/07/03 13:25:52;;;;;;;8.32;1.67;;;;;;;;;;4971139;28;20214;-63
2023/07/03 13:28:19;;;;;;;6.95;1.50;;;;;;;;;;4970221;28;20224;-62
2023/07/03 13:30:45;;;;;;;8.40;1.90;;;;;;;;;;4970857;28;20226;-63
2023/07/03 13:33:11;;;;;;;6.95;1.83;;;;;;;;;;4969863;28;20276;-63
2023/07/03 13:35:38;;;;;;;7.50;1.88;;;;;;;;;;4970741;28;20217;-63
2023/07/03 13:38:18;;;;;;;8.98;1.85;;;;;;;;;;4970550;28;20213;-64
2023/07/03 13:40:44;;;;;;;8.45;1.80;;;;;;;;;;4970457;28;20732;-63
2023/07/03 13:43:09;;;;;;;10.48;1.80;;;;;;;;;;4953170;28;20329;-63
2023/07/03 13:45:34;;;;;;;10.20;2.17;;;;;;;;;;4970904;28;20558;-63
2023/07/03 13:48:00;;;;;;;9.20;1.73;;;;;;;;;;4952733;28;20308;-64
2023/07/03 13:50:25;;;;;;;11.82;1.80;;;;;;;;;;4970265;28;20214;-63
2023/07/03 13:52:52;;;;;;;8.98;1.70;;;;;;;;;;4970741;28;20280;-63
2023/07/03 13:55:17;;;;;;;12.40;1.80;;;;;;;;;;4969638;28;20696;-62
2023/07/03 13:57:43;;;;;;;11.50;1.70;;;;;;;;;;4970847;28;20218;-63
2023/07/03 14:00:09;;;;;;;13.95;1.90;;;;;;;;;;4970333;28;20256;-62
2023/07/03 14:02:36;;;;;;;10.43;1.73;;;;;;;;;;4970275;28;20209;-63
2023/07/03 14:05:01;;;;;;;9.82;1.50;;;;;;;;;;4970247;28;20217;-62
2023/07/03 14:07:26;;;;;;;9.07;1.55;;;;;;;;;;4970403;28;20809;-63
2023/07/03 14:09:54;;;;;;;12.10;1.83;;;;;;;;;;4970088;28;20209;-63
2023/07/03 14:12:19;;;;;;;10.02;1.50;;;;;;;;;;4968643;28;20240;-62
2023/07/03 14:14:44;;;;;;;8.00;1.48;;;;;;;;;;4971087;28;20245;-63
2023/07/03 14:17:10;;;;;;;11.10;1.50;;;;;;;;;;4964353;28;20214;-63
2023/07/03 14:19:35;;;;;;;7.13;1.40;;;;;;;;;;4950485;28;20233;-63
2023/07/03 14:22:00;;;;;;;7.75;1.50;;;;;;;;;;4953248;28;20293;-61
2023/07/03 14:24:26;;;;;;;6.18;1.13;;;;;;;;;;4942893;28;20202;-63
2023/07/03 14:26:51;;;;;;;7.32;1.38;;;;;;;;;;4960432;28;20258;-63